createdAt,value
2017-07-24T00:01:22.179Z,16.90
2017-07-24T00:03:49.653Z,16.90
2017-07-24T00:06:17.877Z,16.90
2017-07-24T00:14:28.091Z,16.80
2017-07-24T00:19:46.167Z,16.70
2017-07-24T00:22:13.633Z,16.70
2017-07-24T00:24:41.107Z,16.70
2017-07-24T00:27:09.337Z,16.70
2017-07-24T00:29:36.812Z,16.60
2017-07-24T00:32:04.272Z,16.60
2017-07-24T00:34:31.744Z,16.60
2017-07-24T00:36:59.968Z,16.60
2017-07-24T00:39:27.450Z,16.60
2017-07-24T00:41:54.918Z,16.60
2017-07-24T00:44:22.392Z,16.50
2017-07-24T00:46:49.860Z,16.40
2017-07-24T00:49:17.326Z,16.40
2017-07-24T00:51:45.572Z,16.40
2017-07-24T00:54:13.039Z,16.40
2017-07-24T00:56:40.506Z,16.30
2017-07-24T00:59:08.746Z,16.40
2017-07-24T01:01:36.207Z,16.30
2017-07-24T01:04:03.684Z,16.40
2017-07-24T01:06:31.146Z,16.20
2017-07-24T01:08:58.617Z,16.10
2017-07-24T01:11:26.860Z,15.80
2017-07-24T01:13:54.321Z,15.80
2017-07-24T01:16:21.805Z,15.70
2017-07-24T01:18:49.261Z,15.70
2017-07-24T01:21:17.537Z,15.70
2017-07-24T01:23:44.997Z,15.60
2017-07-24T01:26:13.243Z,15.80
2017-07-24T01:28:40.708Z,15.80
2017-07-24T01:31:08.184Z,15.80
2017-07-24T01:33:35.644Z,15.80
2017-07-24T01:36:03.120Z,15.80
2017-07-24T01:38:31.344Z,15.70
2017-07-24T01:40:58.819Z,15.70
2017-07-24T01:43:26.279Z,15.80
2017-07-24T01:45:53.759Z,15.80
2017-07-24T01:48:21.990Z,15.70
2017-07-24T01:50:49.481Z,15.60
2017-07-24T01:53:16.939Z,15.50
2017-07-24T01:55:44.410Z,15.40
2017-07-24T01:58:12.639Z,15.50
2017-07-24T02:00:40.112Z,15.50
2017-07-24T02:03:07.576Z,15.60
2017-07-24T02:05:35.052Z,15.50
2017-07-24T02:08:02.520Z,15.50
2017-07-24T02:10:33.562Z,15.40
2017-07-24T02:13:01.818Z,15.30
2017-07-24T02:15:29.309Z,15.30
2017-07-24T02:17:57.549Z,15.40
2017-07-24T02:20:25.030Z,15.40
2017-07-24T02:22:53.245Z,15.40
2017-07-24T02:25:20.711Z,15.40
2017-07-24T02:27:48.178Z,15.50
2017-07-24T02:30:15.648Z,15.40
2017-07-24T02:32:43.122Z,15.40
2017-07-24T02:35:10.583Z,15.40
2017-07-24T02:37:38.836Z,15.30
2017-07-24T02:40:06.291Z,15.20
2017-07-24T02:42:33.767Z,15.30
2017-07-24T02:45:01.216Z,15.30
2017-07-24T02:47:31.939Z,15.20
2017-07-24T02:49:59.405Z,15.20
2017-07-24T02:52:26.886Z,15.20
2017-07-24T02:54:54.351Z,15.10
2017-07-24T02:57:22.583Z,15.10
2017-07-24T02:59:50.050Z,15.00
2017-07-24T03:02:17.528Z,15.00
2017-07-24T03:04:45.024Z,15.00
2017-07-24T03:07:12.491Z,15.00
2017-07-24T03:09:42.911Z,14.90
2017-07-24T03:12:10.387Z,14.90
2017-07-24T03:14:37.881Z,15.00
2017-07-24T03:17:05.345Z,14.90
2017-07-24T03:19:32.870Z,14.90
2017-07-24T03:22:06.095Z,14.80
2017-07-24T03:24:33.572Z,14.60
2017-07-24T03:27:01.048Z,14.60
2017-07-24T03:29:28.506Z,14.60
2017-07-24T03:31:55.976Z,14.50
2017-07-24T03:34:23.446Z,14.50
2017-07-24T03:36:50.920Z,14.50
2017-07-24T03:39:18.412Z,14.50
2017-07-24T03:41:45.895Z,14.50
2017-07-24T03:44:13.354Z,14.50
2017-07-24T03:46:40.829Z,14.50
2017-07-24T03:49:08.291Z,14.50
2017-07-24T03:51:35.785Z,14.50
2017-07-24T03:54:03.297Z,14.40
2017-07-24T03:56:30.751Z,14.40
2017-07-24T03:58:58.236Z,14.40
2017-07-24T04:01:25.687Z,14.30
2017-07-24T04:03:53.164Z,14.40
2017-07-24T04:06:20.623Z,14.30
2017-07-24T04:08:48.099Z,14.40
2017-07-24T04:11:15.576Z,14.40
2017-07-24T04:13:43.816Z,14.40
2017-07-24T04:16:11.285Z,14.40
2017-07-24T04:18:38.764Z,14.40
2017-07-24T04:21:06.991Z,14.50
2017-07-24T04:23:34.463Z,14.40
2017-07-24T04:26:01.932Z,14.40
2017-07-24T04:28:29.420Z,14.40
2017-07-24T04:30:57.658Z,14.40
2017-07-24T04:33:25.129Z,14.30
2017-07-24T04:35:52.586Z,14.40
2017-07-24T04:38:20.065Z,14.40
2017-07-24T04:40:47.519Z,14.40
2017-07-24T04:43:14.998Z,14.40
2017-07-24T04:45:43.237Z,14.50
2017-07-24T04:48:10.713Z,14.50
2017-07-24T04:50:38.213Z,14.60
2017-07-24T04:53:05.682Z,14.70
2017-07-24T04:55:33.161Z,14.60
2017-07-24T04:58:00.622Z,14.70
2017-07-24T05:00:28.122Z,14.70
2017-07-24T05:02:56.362Z,14.80
2017-07-24T05:05:23.814Z,14.80
2017-07-24T05:07:51.299Z,14.90
2017-07-24T05:10:19.523Z,15.00
2017-07-24T05:12:47.007Z,15.00
2017-07-24T05:15:14.476Z,15.10
2017-07-24T05:17:41.939Z,15.10
2017-07-24T05:20:09.404Z,15.10
2017-07-24T05:22:36.873Z,15.10
2017-07-24T05:25:05.108Z,15.40
2017-07-24T05:27:32.563Z,15.40
2017-07-24T05:30:00.033Z,15.50
2017-07-24T05:32:27.509Z,15.60
2017-07-24T05:34:54.992Z,15.70
2017-07-24T05:40:15.297Z,15.80
2017-07-24T05:42:43.532Z,16.00
2017-07-24T05:45:11.002Z,16.00
2017-07-24T05:47:38.474Z,16.10
2017-07-24T05:50:05.953Z,16.20
2017-07-24T05:52:34.186Z,16.30
2017-07-24T05:55:01.660Z,16.30
2017-07-24T05:57:29.138Z,16.40
2017-07-24T06:02:48.097Z,16.50
2017-07-24T06:05:15.575Z,16.70
2017-07-24T06:07:43.806Z,16.90
2017-07-24T06:10:11.280Z,17.00
2017-07-24T06:12:38.764Z,17.10
2017-07-24T06:15:06.994Z,17.40
2017-07-24T06:17:34.466Z,17.30
2017-07-24T06:20:01.935Z,17.40
2017-07-24T06:22:29.401Z,17.50
2017-07-24T06:24:56.870Z,17.60
2017-07-24T06:27:24.328Z,17.70
2017-07-24T06:29:52.541Z,17.90
2017-07-24T06:32:20.010Z,17.80
2017-07-24T06:34:47.480Z,17.90
2017-07-24T06:37:14.942Z,18.00
2017-07-24T06:39:42.394Z,18.10
2017-07-24T06:42:09.866Z,18.30
2017-07-24T06:44:37.331Z,18.40
2017-07-24T06:47:04.798Z,18.40
2017-07-24T06:49:32.252Z,18.50
2017-07-24T06:51:59.718Z,18.50
2017-07-24T06:54:27.948Z,18.60
2017-07-24T06:56:55.411Z,18.60
2017-07-24T06:59:22.869Z,18.70
2017-07-24T07:01:50.617Z,18.80
2017-07-24T07:04:18.079Z,18.90
2017-07-24T07:06:45.544Z,18.90
2017-07-24T07:09:13.015Z,18.90
2017-07-24T07:11:40.475Z,19.00
2017-07-24T07:14:07.952Z,19.10
2017-07-24T07:16:35.417Z,19.10
2017-07-24T07:19:02.886Z,19.10
2017-07-24T07:21:31.109Z,19.10
2017-07-24T07:23:58.569Z,19.10
2017-07-24T07:26:26.028Z,19.20
2017-07-24T07:28:53.499Z,19.20
2017-07-24T07:31:21.110Z,19.20
2017-07-24T07:33:48.582Z,19.20
2017-07-24T07:36:16.040Z,19.20
2017-07-24T07:38:43.514Z,19.30
2017-07-24T07:41:10.970Z,19.30
2017-07-24T07:43:38.448Z,19.30
2017-07-24T07:46:05.915Z,19.40
2017-07-24T07:48:33.391Z,19.50
2017-07-24T07:51:00.848Z,19.60
2017-07-24T07:53:28.314Z,19.60
2017-07-24T07:55:56.545Z,19.90
2017-07-24T07:58:24.022Z,19.90
2017-07-24T08:00:51.499Z,20.10
2017-07-24T08:03:18.975Z,20.10
2017-07-24T08:05:47.200Z,20.30
2017-07-24T08:08:14.662Z,20.30
2017-07-24T08:10:42.130Z,20.30
2017-07-24T08:13:09.607Z,20.40
2017-07-24T08:15:37.338Z,20.50
2017-07-24T08:18:04.796Z,20.60
2017-07-24T08:20:32.266Z,20.70
2017-07-24T08:22:59.725Z,20.80
2017-07-24T08:25:27.193Z,20.90
2017-07-24T08:27:54.651Z,21.00
2017-07-24T08:30:22.118Z,20.80
2017-07-24T08:32:49.583Z,20.80
2017-07-24T08:35:17.048Z,20.70
2017-07-24T08:37:45.281Z,20.60
2017-07-24T08:40:12.777Z,20.60
2017-07-24T08:42:40.229Z,20.50
2017-07-24T08:45:07.698Z,20.70
2017-07-24T08:47:35.930Z,20.80
2017-07-24T08:50:03.413Z,20.80
2017-07-24T08:52:30.869Z,20.70
2017-07-24T08:54:58.337Z,20.70
2017-07-24T08:57:25.810Z,20.60
2017-07-24T08:59:54.046Z,20.60
2017-07-24T09:02:21.518Z,20.50
2017-07-24T09:04:48.994Z,20.50
2017-07-24T09:07:16.466Z,20.50
2017-07-24T09:09:44.703Z,20.50
2017-07-24T09:12:12.972Z,20.50
2017-07-24T09:14:40.444Z,20.50
2017-07-24T09:17:07.944Z,20.50
2017-07-24T09:19:36.176Z,20.40
2017-07-24T09:22:03.638Z,20.40
2017-07-24T09:24:31.147Z,20.40
2017-07-24T09:26:58.617Z,20.50
2017-07-24T09:29:26.090Z,20.40
2017-07-24T09:31:53.578Z,20.40
2017-07-24T09:34:21.068Z,20.40
2017-07-24T09:36:49.298Z,20.30
2017-07-24T09:39:16.754Z,20.30
2017-07-24T09:41:44.229Z,20.30
2017-07-24T09:44:11.733Z,20.20
2017-07-24T09:46:39.222Z,20.20
2017-07-24T09:49:06.683Z,20.20
2017-07-24T09:51:34.154Z,20.10
2017-07-24T09:54:01.611Z,20.10
2017-07-24T09:56:29.103Z,20.10
2017-07-24T09:58:57.322Z,19.90
2017-07-24T10:01:24.791Z,19.90
2017-07-24T10:03:52.251Z,19.80
2017-07-24T10:06:19.732Z,19.80
2017-07-24T10:08:48.370Z,19.70
2017-07-24T10:11:15.847Z,19.50
2017-07-24T10:13:43.302Z,19.40
2017-07-24T10:16:10.772Z,19.30
2017-07-24T10:18:38.218Z,19.10
2017-07-24T10:21:05.980Z,19.10
2017-07-24T10:23:33.439Z,19.00
2017-07-24T10:26:00.917Z,19.10
2017-07-24T10:28:28.370Z,19.10
2017-07-24T10:30:55.835Z,19.10
2017-07-24T10:33:23.334Z,19.10
2017-07-24T10:35:51.571Z,19.10
2017-07-24T10:38:19.030Z,19.00
2017-07-24T10:40:46.495Z,19.10
2017-07-24T10:43:13.951Z,19.10
2017-07-24T10:45:41.427Z,19.10
2017-07-24T10:48:08.891Z,19.10
2017-07-24T10:50:37.138Z,19.10
2017-07-24T10:53:04.593Z,19.10
2017-07-24T10:55:32.052Z,19.20
2017-07-24T10:58:02.667Z,19.10
2017-07-24T11:00:30.132Z,19.10
2017-07-24T11:02:57.582Z,19.00
2017-07-24T11:05:25.052Z,19.10
2017-07-24T11:07:52.524Z,19.10
2017-07-24T11:10:19.987Z,19.00
2017-07-24T11:12:47.450Z,19.00
2017-07-24T11:15:14.911Z,18.90
2017-07-24T11:17:42.382Z,18.80
2017-07-24T11:20:10.615Z,18.70
2017-07-24T11:22:38.077Z,18.70
2017-07-24T11:25:05.551Z,18.60
2017-07-24T11:27:33.021Z,18.70
2017-07-24T11:30:00.482Z,18.70
2017-07-24T11:32:28.732Z,18.60
2017-07-24T11:34:56.207Z,18.60
2017-07-24T11:37:23.680Z,18.70
2017-07-24T11:39:51.384Z,18.70
2017-07-24T11:42:18.875Z,18.70
2017-07-24T11:44:46.334Z,18.70
2017-07-24T11:47:13.798Z,18.60
2017-07-24T11:49:41.246Z,18.60
2017-07-24T11:52:08.724Z,18.60
2017-07-24T11:54:36.179Z,18.50
2017-07-24T11:57:03.658Z,18.50
2017-07-24T11:59:31.880Z,18.40
2017-07-24T12:01:59.351Z,18.40
2017-07-24T12:04:26.807Z,18.30
2017-07-24T12:06:54.291Z,18.30
2017-07-24T12:09:21.746Z,18.30
2017-07-24T12:11:49.219Z,18.40
2017-07-24T12:14:17.459Z,18.40
2017-07-24T12:16:47.858Z,18.40
2017-07-24T12:19:15.331Z,18.40
2017-07-24T12:21:42.789Z,18.40
2017-07-24T12:24:10.263Z,18.50
2017-07-24T12:26:37.722Z,18.40
2017-07-24T12:29:05.194Z,18.40
2017-07-24T12:31:32.655Z,18.40
2017-07-24T12:34:00.133Z,18.40
2017-07-24T12:36:27.583Z,18.50
2017-07-24T12:38:55.830Z,18.60
2017-07-24T12:41:23.291Z,18.60
2017-07-24T12:43:50.781Z,18.60
2017-07-24T12:46:19.002Z,18.70
2017-07-24T12:48:46.470Z,18.70
2017-07-24T12:51:13.937Z,18.70
2017-07-24T12:53:41.407Z,18.60
2017-07-24T12:56:08.862Z,18.60
2017-07-24T12:58:36.331Z,18.60
2017-07-24T13:01:03.791Z,18.60
2017-07-24T13:03:31.273Z,18.60
2017-07-24T13:05:59.494Z,18.60
2017-07-24T13:08:26.954Z,18.60
2017-07-24T13:10:54.428Z,18.60
2017-07-24T13:13:21.890Z,18.60
2017-07-24T13:15:49.359Z,18.70
2017-07-24T13:18:16.824Z,18.60
2017-07-24T13:20:45.044Z,18.60
2017-07-24T13:23:12.519Z,18.60
2017-07-24T13:25:39.986Z,18.70
2017-07-24T13:28:07.459Z,18.70
2017-07-24T13:30:34.922Z,18.70
2017-07-24T13:33:02.384Z,18.70
2017-07-24T13:35:29.851Z,18.60
2017-07-24T13:37:58.082Z,18.60
2017-07-24T13:40:25.550Z,18.60
2017-07-24T13:42:53.012Z,18.50
2017-07-24T13:45:20.475Z,18.50
2017-07-24T13:47:47.950Z,18.50
2017-07-24T13:50:15.411Z,18.50
2017-07-24T13:52:42.868Z,18.50
2017-07-24T13:55:10.333Z,18.50
2017-07-24T13:57:37.820Z,18.50
2017-07-24T14:00:05.300Z,18.50
2017-07-24T14:02:32.759Z,18.50
2017-07-24T14:05:00.225Z,18.40
2017-07-24T14:07:27.687Z,18.40
2017-07-24T14:09:55.151Z,18.40
2017-07-24T14:12:22.601Z,18.40
2017-07-24T14:14:50.085Z,18.40
2017-07-24T14:17:17.555Z,18.30
2017-07-24T14:19:46.166Z,18.20
2017-07-24T14:22:13.635Z,18.20
2017-07-24T14:24:41.090Z,18.10
2017-07-24T14:27:08.551Z,18.10
2017-07-24T14:29:36.023Z,18.10
2017-07-24T14:32:03.480Z,18.00
2017-07-24T14:34:30.958Z,18.00
2017-07-24T14:36:58.422Z,18.00
2017-07-24T14:39:25.924Z,17.90
2017-07-24T14:41:53.388Z,18.00
2017-07-24T14:44:20.871Z,18.00
2017-07-24T14:46:48.327Z,18.00
2017-07-24T14:49:15.811Z,18.10
2017-07-24T14:51:43.291Z,18.20
2017-07-24T14:54:10.746Z,18.10
2017-07-24T14:56:38.218Z,18.00
2017-07-24T14:59:05.678Z,18.10
2017-07-24T15:01:33.911Z,18.00
2017-07-24T15:04:01.369Z,18.00
2017-07-24T15:06:28.830Z,18.00
2017-07-24T15:08:56.307Z,18.00
2017-07-24T15:11:23.781Z,18.00
2017-07-24T15:13:52.023Z,18.00
2017-07-24T15:16:19.537Z,18.00
2017-07-24T15:18:47.420Z,17.90
2017-07-24T15:21:14.898Z,17.90
2017-07-24T15:23:42.372Z,17.80
2017-07-24T15:26:09.834Z,17.80
2017-07-24T15:28:37.320Z,17.60
2017-07-24T15:31:05.561Z,17.60
2017-07-24T15:33:33.046Z,17.50
2017-07-24T15:36:00.519Z,17.50
2017-07-24T15:38:27.983Z,17.60
2017-07-24T15:40:55.460Z,17.60
2017-07-24T15:43:22.919Z,17.50
2017-07-24T15:45:50.387Z,17.50
2017-07-24T15:48:17.854Z,17.40
2017-07-24T15:50:45.324Z,17.50
2017-07-24T15:53:12.788Z,17.50
2017-07-24T15:55:40.267Z,17.50
2017-07-24T15:58:08.491Z,17.50
2017-07-24T16:00:36.244Z,17.50
2017-07-24T16:03:03.702Z,17.50
2017-07-24T16:05:31.183Z,17.50
2017-07-24T16:07:58.647Z,17.50
2017-07-24T16:10:26.112Z,17.50
2017-07-24T16:12:53.584Z,17.60
2017-07-24T16:15:21.815Z,17.60
2017-07-24T16:17:49.287Z,17.70
2017-07-24T16:20:16.750Z,17.70
2017-07-24T16:22:44.229Z,17.60
2017-07-24T16:25:11.681Z,17.60
2017-07-24T16:27:39.168Z,17.50
2017-07-24T16:30:06.639Z,17.40
2017-07-24T16:32:34.131Z,17.40
2017-07-24T16:35:01.604Z,17.40
2017-07-24T16:37:29.086Z,17.40
2017-07-24T16:39:57.313Z,17.40
2017-07-24T16:42:24.791Z,17.30
2017-07-24T16:44:52.267Z,17.40
2017-07-24T16:47:19.748Z,17.40
2017-07-24T16:49:47.974Z,17.40
2017-07-24T16:52:25.953Z,17.40
2017-07-24T16:54:53.422Z,17.40
2017-07-24T16:57:20.895Z,17.40
2017-07-24T16:59:48.353Z,17.40
2017-07-24T17:02:16.603Z,17.40
2017-07-24T17:04:44.070Z,17.30
2017-07-24T17:07:11.754Z,17.40
2017-07-24T17:09:40.357Z,17.40
2017-07-24T17:12:09.300Z,17.40
2017-07-24T17:14:36.933Z,17.40
2017-07-24T17:17:04.404Z,17.50
2017-07-24T17:19:31.859Z,17.60
2017-07-24T17:21:59.348Z,17.60
2017-07-24T17:24:27.733Z,17.60
2017-07-24T17:26:55.384Z,17.60
2017-07-24T17:29:22.843Z,17.60
2017-07-24T17:31:51.089Z,17.50
2017-07-24T17:34:18.635Z,17.50
2017-07-24T17:36:46.118Z,17.50
2017-07-24T17:39:13.590Z,17.50
2017-07-24T17:41:41.065Z,17.40
2017-07-24T17:44:08.542Z,17.30
2017-07-24T17:46:36.783Z,17.30
2017-07-24T17:49:04.251Z,17.20
2017-07-24T17:51:31.712Z,17.30
2017-07-24T17:53:59.198Z,17.20
2017-07-24T17:56:27.470Z,17.20
2017-07-24T17:58:55.703Z,17.20
2017-07-24T18:01:23.168Z,17.20
2017-07-24T18:03:50.662Z,17.20
2017-07-24T18:06:18.122Z,17.20
2017-07-24T18:08:46.353Z,17.10
2017-07-24T18:11:13.838Z,17.10
2017-07-24T18:13:41.310Z,17.10
2017-07-24T18:16:09.543Z,17.10
2017-07-24T18:18:37.033Z,17.10
2017-07-24T18:21:04.490Z,17.10
2017-07-24T18:23:31.960Z,17.10
2017-07-24T18:26:00.204Z,17.10
2017-07-24T18:28:27.690Z,17.10
2017-07-24T18:30:55.919Z,17.00
2017-07-24T18:33:23.398Z,17.00
2017-07-24T18:35:50.972Z,17.00
2017-07-24T18:38:18.517Z,17.00
2017-07-24T18:40:45.984Z,17.00
2017-07-24T18:43:13.459Z,17.00
2017-07-24T18:45:40.927Z,16.90
2017-07-24T18:48:09.166Z,16.90
2017-07-24T18:50:36.628Z,16.90
2017-07-24T18:53:04.102Z,16.90
2017-07-24T18:55:31.662Z,16.90
2017-07-24T18:57:59.208Z,16.90
2017-07-24T19:00:26.686Z,16.80
2017-07-24T19:02:54.237Z,16.70
2017-07-24T19:05:21.705Z,16.70
2017-07-24T19:07:49.939Z,16.70
2017-07-24T19:10:17.420Z,16.70
2017-07-24T19:12:44.878Z,16.70
2017-07-24T19:15:12.356Z,16.60
2017-07-24T19:17:40.610Z,16.60
2017-07-24T19:20:08.180Z,16.60
2017-07-24T19:22:35.653Z,16.60
2017-07-24T19:25:03.894Z,16.60
2017-07-24T19:27:31.377Z,16.60
2017-07-24T19:30:08.591Z,16.70
2017-07-24T19:32:36.066Z,16.70
2017-07-24T19:35:03.534Z,16.70
2017-07-24T19:37:31.007Z,16.70
2017-07-24T19:39:58.487Z,16.60
2017-07-24T19:42:25.958Z,16.60
2017-07-24T19:44:53.433Z,16.60
2017-07-24T19:47:21.666Z,16.60
2017-07-24T19:49:49.146Z,16.50
2017-07-24T19:52:22.683Z,16.50
2017-07-24T19:54:50.213Z,16.50
2017-07-24T19:57:17.667Z,16.40
2017-07-24T19:59:45.158Z,16.50
2017-07-24T20:02:12.635Z,16.40
2017-07-24T20:04:40.140Z,16.40
2017-07-24T20:07:07.692Z,16.40
2017-07-24T20:09:35.177Z,16.50
2017-07-24T20:12:03.398Z,16.50
2017-07-24T20:14:30.882Z,16.40
2017-07-24T20:16:58.355Z,16.50
2017-07-24T20:19:25.846Z,16.50
2017-07-24T20:21:53.353Z,16.60
2017-07-24T20:24:20.921Z,16.60
2017-07-24T20:26:48.485Z,16.50
2017-07-24T20:29:15.950Z,16.50
2017-07-24T20:31:43.420Z,16.50
2017-07-24T20:34:11.774Z,16.40
2017-07-24T20:36:39.242Z,16.40
2017-07-24T20:39:06.716Z,16.40
2017-07-24T20:41:35.022Z,16.40
2017-07-24T20:44:02.494Z,16.40
2017-07-24T20:46:29.989Z,16.40
2017-07-24T20:48:57.451Z,16.40
2017-07-24T20:51:25.004Z,16.40
2017-07-24T20:53:52.463Z,16.50
2017-07-24T20:56:19.938Z,16.50
2017-07-24T20:58:48.166Z,16.50
2017-07-24T21:01:15.642Z,16.50
2017-07-24T21:03:43.107Z,16.50
2017-07-24T21:06:10.566Z,16.50
2017-07-24T21:08:38.127Z,16.60
2017-07-24T21:11:05.596Z,16.60
2017-07-24T21:13:33.065Z,16.60
2017-07-24T21:16:01.294Z,16.70
2017-07-24T21:18:28.750Z,16.70
2017-07-24T21:20:56.240Z,16.80
2017-07-24T21:23:23.703Z,16.80
2017-07-24T21:28:20.044Z,16.80
2017-07-24T21:30:47.509Z,16.90
2017-07-24T21:33:16.782Z,16.90
2017-07-24T21:35:44.256Z,16.80
2017-07-24T21:38:11.709Z,16.80
2017-07-24T21:40:39.288Z,16.60
2017-07-24T21:43:06.848Z,16.60
2017-07-24T21:45:34.303Z,16.60
2017-07-24T21:48:01.788Z,16.50
2017-07-24T21:50:30.011Z,16.40
2017-07-24T21:52:57.495Z,16.40
2017-07-24T21:55:24.957Z,16.40
2017-07-24T21:57:52.512Z,16.30
2017-07-24T22:00:20.062Z,16.30
2017-07-24T22:02:47.626Z,16.30
2017-07-24T22:05:15.192Z,16.20
2017-07-24T22:07:42.662Z,16.20
2017-07-24T22:10:10.922Z,16.10
2017-07-24T22:12:38.403Z,16.10
2017-07-24T22:15:06.664Z,16.00
2017-07-24T22:17:34.148Z,16.00
2017-07-24T22:20:02.378Z,16.00
2017-07-24T22:22:29.947Z,15.90
2017-07-24T22:24:57.410Z,16.00
2017-07-24T22:27:24.888Z,16.00
2017-07-24T22:29:53.121Z,15.90
2017-07-24T22:32:20.586Z,15.90
2017-07-24T22:34:48.048Z,15.90
2017-07-24T22:37:15.520Z,15.90
2017-07-24T22:39:42.978Z,15.90
2017-07-24T22:42:10.449Z,15.90
2017-07-24T22:44:37.914Z,16.00
2017-07-24T22:47:06.167Z,16.10
2017-07-24T22:49:33.631Z,16.10
2017-07-24T22:52:01.102Z,16.10
2017-07-24T22:54:29.336Z,16.00
2017-07-24T22:56:56.821Z,16.00
2017-07-24T22:59:24.318Z,16.00
2017-07-24T23:01:51.845Z,16.00
2017-07-24T23:04:19.320Z,15.90
2017-07-24T23:06:47.576Z,15.90
2017-07-24T23:09:15.122Z,15.90
2017-07-24T23:11:42.582Z,16.00
2017-07-24T23:14:10.055Z,16.00
2017-07-24T23:16:37.523Z,16.00
2017-07-24T23:19:05.767Z,16.10
2017-07-24T23:21:33.255Z,16.10
2017-07-24T23:24:00.796Z,16.10
2017-07-24T23:26:28.263Z,16.20
2017-07-24T23:28:55.744Z,16.20
2017-07-24T23:31:23.994Z,16.20
2017-07-24T23:33:51.555Z,16.20
2017-07-24T23:36:19.122Z,16.20
2017-07-24T23:38:46.597Z,16.20
2017-07-24T23:41:14.833Z,16.10
2017-07-24T23:43:42.312Z,16.10
2017-07-24T23:46:09.774Z,16.10
2017-07-24T23:48:37.250Z,16.10
2017-07-24T23:51:05.479Z,16.10
2017-07-24T23:53:32.945Z,16.10
2017-07-24T23:56:00.402Z,16.20
2017-07-24T23:58:27.885Z,16.20
